Time;durP1;ratioP1;P1;durP2;ratioP2;P2;SDS_P1;SDS_P2;PMS_P1;PMS_P2;Temp;Humidity;BMP_temperature;BMP_pressure;BME280_temperature;BME280_humidity;BME280_pressure;Samples;Min_cycle;Max_cycle;Signal;HPM_P1;HPM_P2
2021/12/29 00:00:21;;;;;;;3.08;2.55;;;;;;;;;;1863811;76;26647;-29
2021/12/29 00:02:49;;;;;;;2.85;2.65;;;;;;;;;;1858818;76;26332;-29
2021/12/29 00:05:17;;;;;;;2.80;2.60;;;;;;;;;;1857583;77;26300;-30
2021/12/29 00:07:44;;;;;;;2.72;2.52;;;;;;;;;;1853914;76;26250;-30
2021/12/29 00:10:14;;;;;;;2.67;2.47;;;;;;;;;;1860639;76;26292;-29
2021/12/29 00:12:46;;;;;;;2.65;2.55;;;;;;;;;;1868636;76;26256;-29
2021/12/29 00:15:12;;;;;;;2.67;2.47;;;;;;;;;;1827006;78;26257;-30
2021/12/29 00:17:42;;;;;;;2.50;2.30;;;;;;;;;;1834947;76;26261;-29
2021/12/29 00:20:10;;;;;;;2.42;2.30;;;;;;;;;;1893719;76;26805;-30
2021/12/29 00:22:37;;;;;;;3.08;2.80;;;;;;;;;;1888112;76;26784;-29
2021/12/29 00:25:05;;;;;;;2.62;2.42;;;;;;;;;;1855835;76;26264;-29
2021/12/29 00:27:32;;;;;;;2.80;2.60;;;;;;;;;;1856624;77;26736;-30
2021/12/29 00:30:00;;;;;;;2.52;2.42;;;;;;;;;;1837814;77;26300;-29
2021/12/29 00:32:27;;;;;;;2.80;2.60;;;;;;;;;;1831441;78;26245;-29
2021/12/29 00:34:55;;;;;;;2.70;2.50;;;;;;;;;;1837467;77;25679;-29
2021/12/29 00:37:22;;;;;;;2.72;2.52;;;;;;;;;;1835445;77;26259;-29
2021/12/29 00:39:49;;;;;;;2.62;2.42;;;;;;;;;;1845946;77;26205;-29
2021/12/29 00:42:16;;;;;;;3.35;2.40;;;;;;;;;;1849202;77;26259;-29
2021/12/29 00:44:43;;;;;;;3.10;2.90;;;;;;;;;;1848719;77;26278;-29
2021/12/29 00:47:12;;;;;;;3.05;2.70;;;;;;;;;;1847224;77;26323;-29
2021/12/29 00:49:41;;;;;;;2.75;2.58;;;;;;;;;;1847088;77;26293;-29
2021/12/29 00:52:09;;;;;;;3.00;2.80;;;;;;;;;;1847346;77;26285;-29
2021/12/29 00:54:38;;;;;;;2.83;2.62;;;;;;;;;;1847361;77;26787;-29
2021/12/29 00:57:06;;;;;;;2.80;2.65;;;;;;;;;;1824367;77;26373;-29
2021/12/29 00:59:33;;;;;;;3.00;2.80;;;;;;;;;;1801435;79;26632;-30
2021/12/29 01:02:00;;;;;;;2.65;2.55;;;;;;;;;;1801343;79;26275;-30
2021/12/29 01:04:28;;;;;;;3.10;2.90;;;;;;;;;;1843759;77;26716;-29
2021/12/29 01:06:55;;;;;;;2.83;2.67;;;;;;;;;;1838444;76;26255;-30
2021/12/29 01:09:22;;;;;;;3.27;3.08;;;;;;;;;;1836571;77;26326;-29
2021/12/29 01:11:54;;;;;;;3.02;2.50;;;;;;;;;;1847666;77;26259;-29
2021/12/29 01:14:22;;;;;;;3.00;2.80;;;;;;;;;;1818183;78;26331;-29
2021/12/29 01:16:48;;;;;;;3.17;2.98;;;;;;;;;;1842207;77;26412;-30
2021/12/29 01:19:19;;;;;;;2.92;2.72;;;;;;;;;;1848934;77;26731;-29
2021/12/29 01:21:48;;;;;;;3.27;2.98;;;;;;;;;;1847926;77;26826;-29
2021/12/29 01:24:16;;;;;;;3.37;3.08;;;;;;;;;;1839278;77;26213;-29
2021/12/29 01:26:44;;;;;;;3.12;2.87;;;;;;;;;;1832637;77;26333;-29
2021/12/29 01:29:12;;;;;;;3.55;2.70;;;;;;;;;;1850871;76;26289;-30
2021/12/29 01:31:40;;;;;;;3.30;3.02;;;;;;;;;;1863055;77;26304;-29
2021/12/29 01:34:08;;;;;;;3.33;2.90;;;;;;;;;;1863084;77;26746;-29
2021/12/29 01:36:36;;;;;;;3.20;3.00;;;;;;;;;;1866843;76;26237;-29
2021/12/29 01:39:05;;;;;;;3.10;2.90;;;;;;;;;;1880950;76;26241;-29
2021/12/29 01:41:32;;;;;;;3.00;2.80;;;;;;;;;;1878524;76;25652;-30
2021/12/29 01:44:00;;;;;;;3.22;3.00;;;;;;;;;;1880818;76;26253;-29
2021/12/29 01:46:28;;;;;;;3.52;3.22;;;;;;;;;;1874644;76;26254;-30
2021/12/29 01:48:55;;;;;;;3.52;3.22;;;;;;;;;;1880748;76;26274;-29
2021/12/29 01:51:23;;;;;;;3.30;3.10;;;;;;;;;;1880928;76;26283;-29
2021/12/29 01:54:03;;;;;;;3.40;3.10;;;;;;;;;;1880964;76;25831;-29
2021/12/29 01:56:19;;;;;;;3.52;3.25;;;;;;;;;;1877798;76;26733;-29
2021/12/29 01:58:47;;;;;;;3.22;3.02;;;;;;;;;;1880886;76;26300;-29
2021/12/29 02:01:14;;;;;;;3.60;3.30;;;;;;;;;;1881124;76;26241;-29
2021/12/29 02:03:41;;;;;;;3.58;3.27;;;;;;;;;;1870553;76;26250;-29
2021/12/29 02:06:09;;;;;;;2.92;2.72;;;;;;;;;;1875462;75;26563;-29
2021/12/29 02:08:36;;;;;;;3.58;3.27;;;;;;;;;;1880302;76;26269;-29
2021/12/29 02:11:06;;;;;;;3.80;3.50;;;;;;;;;;1881152;76;26262;-29
2021/12/29 02:13:32;;;;;;;3.60;3.30;;;;;;;;;;1880855;75;26350;-30
2021/12/29 02:16:00;;;;;;;3.58;3.27;;;;;;;;;;1878499;76;26253;-29
2021/12/29 02:18:27;;;;;;;3.92;3.62;;;;;;;;;;1876862;76;26312;-29
2021/12/29 02:20:55;;;;;;;3.45;3.25;;;;;;;;;;1867158;76;26261;-29
2021/12/29 02:23:54;;;;;;;3.30;3.00;;;;;;;;;;1866715;77;26353;-29
2021/12/29 02:26:03;;;;;;;3.35;3.08;;;;;;;;;;1872488;76;26576;-29
2021/12/29 02:28:32;;;;;;;3.50;3.27;;;;;;;;;;1876675;76;26781;-30
2021/12/29 02:30:59;;;;;;;3.45;3.17;;;;;;;;;;1883568;76;26352;-30
2021/12/29 02:33:30;;;;;;;3.87;3.58;;;;;;;;;;1886153;76;26831;-30
2021/12/29 02:35:58;;;;;;;3.87;3.58;;;;;;;;;;1885863;76;26388;-30
2021/12/29 02:38:30;;;;;;;3.52;3.30;;;;;;;;;;1872016;76;26214;-29
2021/12/29 02:40:59;;;;;;;3.42;3.20;;;;;;;;;;1869588;76;26250;-29
2021/12/29 02:43:27;;;;;;;3.70;3.47;;;;;;;;;;1890160;76;26282;-29
2021/12/29 02:46:00;;;;;;;4.28;3.98;;;;;;;;;;1890055;76;26603;-29
2021/12/29 02:48:30;;;;;;;3.85;3.55;;;;;;;;;;1874386;76;26283;-29
2021/12/29 02:50:59;;;;;;;3.65;3.40;;;;;;;;;;1858004;77;26334;-29
2021/12/29 02:53:27;;;;;;;4.03;3.72;;;;;;;;;;1858218;77;26261;-29
2021/12/29 02:55:55;;;;;;;3.87;3.58;;;;;;;;;;1874673;75;26297;-29
2021/12/29 02:58:23;;;;;;;4.00;3.70;;;;;;;;;;1883568;76;26750;-30
2021/12/29 03:00:52;;;;;;;3.70;3.40;;;;;;;;;;1889092;76;26242;-29
2021/12/29 03:03:20;;;;;;;3.77;3.47;;;;;;;;;;1886193;76;26247;-30
2021/12/29 03:05:48;;;;;;;3.42;3.12;;;;;;;;;;1885382;76;26713;-30
2021/12/29 03:08:17;;;;;;;4.17;3.77;;;;;;;;;;1891289;76;26276;-29
2021/12/29 03:10:45;;;;;;;3.42;3.22;;;;;;;;;;1891547;76;26242;-29
2021/12/29 03:13:14;;;;;;;3.70;3.40;;;;;;;;;;1888842;76;26364;-29
2021/12/29 03:15:42;;;;;;;3.92;3.62;;;;;;;;;;1884272;76;26581;-29
2021/12/29 03:18:09;;;;;;;3.80;3.50;;;;;;;;;;1862863;76;26320;-29
2021/12/29 03:20:36;;;;;;;4.72;3.95;;;;;;;;;;1876991;76;26264;-29
2021/12/29 03:23:03;;;;;;;3.98;3.60;;;;;;;;;;1876046;74;26300;-29
2021/12/29 03:25:31;;;;;;;3.62;3.33;;;;;;;;;;1898268;74;26725;-29
2021/12/29 03:28:00;;;;;;;3.87;3.40;;;;;;;;;;1886443;76;26803;-30
2021/12/29 03:30:32;;;;;;;3.95;3.65;;;;;;;;;;1889290;76;26322;-29
2021/12/29 03:33:03;;;;;;;3.60;3.33;;;;;;;;;;1885053;76;26785;-30
2021/12/29 03:35:31;;;;;;;3.90;3.60;;;;;;;;;;1890521;76;26251;-30
2021/12/29 03:38:00;;;;;;;3.65;3.35;;;;;;;;;;1890375;76;26252;-30
2021/12/29 03:40:28;;;;;;;4.30;3.90;;;;;;;;;;1884850;76;26329;-29
2021/12/29 03:42:55;;;;;;;4.00;3.70;;;;;;;;;;1857698;77;26339;-29
2021/12/29 03:45:23;;;;;;;4.00;3.62;;;;;;;;;;1877810;76;26206;-29
2021/12/29 03:47:50;;;;;;;3.42;3.22;;;;;;;;;;1861725;76;26204;-29
2021/12/29 03:50:18;;;;;;;3.45;3.25;;;;;;;;;;1881698;74;26328;-29
2021/12/29 03:52:45;;;;;;;3.77;3.47;;;;;;;;;;1890503;76;26182;-29
2021/12/29 03:55:14;;;;;;;3.72;3.42;;;;;;;;;;1890579;76;26187;-29
2021/12/29 03:57:41;;;;;;;3.98;3.67;;;;;;;;;;1884713;76;26311;-29
2021/12/29 04:00:10;;;;;;;3.90;3.42;;;;;;;;;;1864310;76;26282;-29
2021/12/29 04:02:37;;;;;;;3.98;3.60;;;;;;;;;;1890819;76;26238;-29
2021/12/29 04:05:06;;;;;;;3.90;3.60;;;;;;;;;;1883792;76;26721;-29
2021/12/29 04:07:33;;;;;;;3.83;3.47;;;;;;;;;;1890781;76;26794;-29
2021/12/29 04:10:01;;;;;;;3.77;3.47;;;;;;;;;;1890685;76;26238;-29
2021/12/29 04:12:28;;;;;;;3.40;3.20;;;;;;;;;;1889193;75;26698;-30
2021/12/29 04:14:55;;;;;;;3.95;3.65;;;;;;;;;;1889587;76;26337;-29
2021/12/29 04:17:29;;;;;;;3.90;3.60;;;;;;;;;;1890500;76;26265;-29
2021/12/29 04:22:37;;;;;;;3.80;3.50;;;;;;;;;;1870791;76;26240;-29
2021/12/29 04:25:05;;;;;;;3.95;3.58;;;;;;;;;;1890526;76;26246;-29
2021/12/29 04:27:32;;;;;;;3.72;3.42;;;;;;;;;;1885198;76;26254;-29
2021/12/29 04:30:00;;;;;;;4.00;3.60;;;;;;;;;;1874113;76;26261;-29
2021/12/29 04:32:27;;;;;;;3.90;3.60;;;;;;;;;;1874569;76;26281;-29
2021/12/29 04:34:54;;;;;;;3.50;3.30;;;;;;;;;;1865633;76;26206;-29
2021/12/29 04:37:22;;;;;;;4.25;3.85;;;;;;;;;;1851673;76;26348;-29
2021/12/29 04:39:49;;;;;;;3.40;3.20;;;;;;;;;;1853776;76;26362;-29
2021/12/29 04:42:16;;;;;;;3.87;3.58;;;;;;;;;;1850614;76;26230;-29
2021/12/29 04:44:43;;;;;;;3.98;3.67;;;;;;;;;;1883290;76;27323;-29
2021/12/29 04:47:12;;;;;;;3.35;3.15;;;;;;;;;;1884691;76;26251;-30
2021/12/29 04:49:41;;;;;;;4.28;3.87;;;;;;;;;;1882129;76;26231;-29
2021/12/29 04:52:10;;;;;;;3.35;3.12;;;;;;;;;;1881784;76;26251;-29
2021/12/29 04:54:38;;;;;;;3.60;3.30;;;;;;;;;;1867047;76;26290;-29
2021/12/29 04:57:06;;;;;;;3.77;3.47;;;;;;;;;;1880834;76;26260;-30
2021/12/29 04:59:33;;;;;;;3.95;3.65;;;;;;;;;;1880942;76;26301;-29
2021/12/29 05:02:01;;;;;;;3.83;3.52;;;;;;;;;;1880840;76;26312;-29
2021/12/29 05:04:32;;;;;;;3.85;3.55;;;;;;;;;;1882873;76;26273;-29
2021/12/29 05:09:44;;;;;;;3.72;3.42;;;;;;;;;;1878508;76;26266;-29
2021/12/29 05:12:12;;;;;;;3.98;3.65;;;;;;;;;;1880867;75;26304;-30
2021/12/29 05:14:39;;;;;;;3.60;3.33;;;;;;;;;;1882052;76;26207;-29
2021/12/29 05:17:07;;;;;;;3.70;3.40;;;;;;;;;;1880833;76;26774;-29
2021/12/29 05:19:34;;;;;;;3.50;3.27;;;;;;;;;;1880776;76;26245;-30
2021/12/29 05:22:02;;;;;;;4.00;3.50;;;;;;;;;;1859389;76;26531;-29
2021/12/29 05:24:30;;;;;;;3.70;3.40;;;;;;;;;;1880688;76;26251;-29
2021/12/29 05:26:57;;;;;;;3.75;3.55;;;;;;;;;;1880937;76;26289;-29
2021/12/29 05:29:24;;;;;;;3.75;3.45;;;;;;;;;;1864790;76;26242;-29
2021/12/29 05:31:52;;;;;;;3.90;3.60;;;;;;;;;;1866832;76;26825;-29
2021/12/29 05:34:19;;;;;;;3.72;3.42;;;;;;;;;;1850109;77;26711;-29
2021/12/29 05:36:47;;;;;;;3.77;3.47;;;;;;;;;;1829436;77;26267;-29
2021/12/29 05:39:14;;;;;;;4.30;3.90;;;;;;;;;;1836752;77;26809;-29
2021/12/29 05:41:41;;;;;;;4.20;3.90;;;;;;;;;;1855157;76;26782;-29
2021/12/29 05:44:08;;;;;;;3.65;3.40;;;;;;;;;;1830871;77;26260;-29
2021/12/29 05:46:36;;;;;;;3.80;3.50;;;;;;;;;;1846707;77;26362;-29
2021/12/29 05:49:03;;;;;;;3.80;3.50;;;;;;;;;;1841552;76;26346;-29
2021/12/29 05:51:30;;;;;;;4.08;3.70;;;;;;;;;;1839677;77;26738;-29
2021/12/29 05:53:57;;;;;;;3.80;3.50;;;;;;;;;;1831746;77;26792;-29
2021/12/29 05:56:26;;;;;;;4.00;3.70;;;;;;;;;;1832430;77;26283;-29
2021/12/29 05:58:56;;;;;;;3.80;3.50;;;;;;;;;;1820927;78;26304;-30
2021/12/29 06:01:23;;;;;;;4.12;3.77;;;;;;;;;;1838178;77;26644;-29
2021/12/29 06:03:50;;;;;;;3.70;3.40;;;;;;;;;;1849785;77;26286;-30
2021/12/29 06:06:17;;;;;;;3.87;3.58;;;;;;;;;;1834630;77;26696;-29
2021/12/29 06:08:44;;;;;;;3.95;3.65;;;;;;;;;;1843425;77;26713;-29
2021/12/29 06:11:12;;;;;;;3.70;3.40;;;;;;;;;;1824853;78;26284;-30
2021/12/29 06:13:39;;;;;;;3.85;3.55;;;;;;;;;;1841303;77;26782;-29
2021/12/29 06:16:06;;;;;;;3.55;3.25;;;;;;;;;;1846443;77;26826;-29
2021/12/29 06:18:34;;;;;;;4.00;3.70;;;;;;;;;;1820600;77;26701;-29
2021/12/29 06:21:01;;;;;;;3.80;3.50;;;;;;;;;;1832838;77;26263;-30
2021/12/29 06:23:28;;;;;;;4.03;3.62;;;;;;;;;;1842982;76;26261;-29
2021/12/29 06:25:56;;;;;;;3.70;3.40;;;;;;;;;;1854244;76;26349;-29
2021/12/29 06:28:23;;;;;;;3.80;3.50;;;;;;;;;;1822406;77;26247;-29
2021/12/29 06:30:50;;;;;;;3.70;3.40;;;;;;;;;;1832262;77;26287;-29
2021/12/29 06:33:18;;;;;;;3.75;3.45;;;;;;;;;;1873424;76;26294;-29
2021/12/29 06:35:45;;;;;;;3.58;3.27;;;;;;;;;;1870557;76;26651;-29
2021/12/29 06:38:12;;;;;;;3.77;3.47;;;;;;;;;;1855964;77;26803;-30
2021/12/29 06:40:39;;;;;;;3.52;3.33;;;;;;;;;;1863689;76;26638;-29
2021/12/29 06:43:06;;;;;;;3.85;3.55;;;;;;;;;;1879620;76;26498;-29
2021/12/29 06:45:34;;;;;;;3.65;3.40;;;;;;;;;;1857976;77;26235;-29
2021/12/29 06:48:01;;;;;;;3.45;3.25;;;;;;;;;;1885308;76;26301;-29
2021/12/29 06:50:29;;;;;;;3.60;3.40;;;;;;;;;;1863706;76;27257;-29
2021/12/29 06:52:56;;;;;;;3.70;3.40;;;;;;;;;;1882451;76;26258;-29
2021/12/29 06:55:24;;;;;;;3.85;3.55;;;;;;;;;;1876231;76;26254;-29
2021/12/29 06:57:51;;;;;;;3.80;3.50;;;;;;;;;;1887013;76;26234;-30
2021/12/29 07:00:19;;;;;;;3.77;3.47;;;;;;;;;;1862211;76;26239;-29
2021/12/29 07:02:46;;;;;;;3.62;3.33;;;;;;;;;;1859299;76;26808;-29
2021/12/29 07:05:15;;;;;;;3.70;3.40;;;;;;;;;;1857646;76;26707;-30
2021/12/29 07:07:43;;;;;;;3.80;3.52;;;;;;;;;;1857627;77;26317;-30
2021/12/29 07:10:10;;;;;;;3.72;3.42;;;;;;;;;;1887301;76;26238;-30
2021/12/29 07:12:37;;;;;;;3.80;3.50;;;;;;;;;;1865013;76;26247;-30
2021/12/29 07:15:05;;;;;;;3.55;3.35;;;;;;;;;;1877081;76;26252;-30
2021/12/29 07:17:32;;;;;;;3.75;3.45;;;;;;;;;;1850254;77;26784;-30
2021/12/29 07:20:00;;;;;;;3.83;3.52;;;;;;;;;;1856673;77;26867;-30
2021/12/29 07:22:27;;;;;;;3.60;3.30;;;;;;;;;;1862146;76;26183;-29
2021/12/29 07:24:55;;;;;;;3.85;3.55;;;;;;;;;;1860530;76;26317;-30
2021/12/29 07:27:22;;;;;;;3.80;3.50;;;;;;;;;;1875806;76;26238;-30
2021/12/29 07:29:49;;;;;;;4.20;3.90;;;;;;;;;;1869614;76;26304;-30
2021/12/29 07:32:16;;;;;;;3.55;3.27;;;;;;;;;;1887859;75;26278;-29
2021/12/29 07:34:44;;;;;;;3.95;3.65;;;;;;;;;;1879402;76;26398;-30
2021/12/29 07:37:12;;;;;;;3.80;3.50;;;;;;;;;;1868001;76;26687;-30
2021/12/29 07:39:39;;;;;;;3.47;3.20;;;;;;;;;;1866391;76;26757;-30
2021/12/29 07:42:07;;;;;;;3.72;3.42;;;;;;;;;;1878262;76;26316;-30
2021/12/29 07:44:35;;;;;;;3.92;3.62;;;;;;;;;;1881396;76;26292;-30
2021/12/29 07:47:02;;;;;;;3.30;3.10;;;;;;;;;;1882782;76;26207;-30
2021/12/29 07:49:29;;;;;;;3.60;3.30;;;;;;;;;;1883825;76;26702;-29
2021/12/29 07:51:57;;;;;;;3.92;3.62;;;;;;;;;;1880954;76;26336;-29
2021/12/29 07:54:24;;;;;;;3.52;3.33;;;;;;;;;;1885926;76;26273;-30
2021/12/29 07:56:52;;;;;;;3.10;2.90;;;;;;;;;;1873182;76;26280;-30
2021/12/29 07:59:19;;;;;;;3.70;3.40;;;;;;;;;;1866405;76;26823;-30
2021/12/29 08:01:46;;;;;;;3.77;3.47;;;;;;;;;;1878078;76;26336;-30
2021/12/29 08:04:14;;;;;;;3.67;3.37;;;;;;;;;;1878980;76;26273;-30
2021/12/29 08:06:42;;;;;;;3.90;3.60;;;;;;;;;;1880957;76;26810;-30
2021/12/29 08:09:10;;;;;;;4.00;3.70;;;;;;;;;;1883532;76;26302;-29
2021/12/29 08:11:38;;;;;;;3.55;3.30;;;;;;;;;;1883353;76;26332;-30
2021/12/29 08:14:05;;;;;;;3.87;3.58;;;;;;;;;;1885782;76;26739;-30
2021/12/29 08:16:32;;;;;;;3.60;3.30;;;;;;;;;;1866923;76;26315;-30
2021/12/29 08:19:00;;;;;;;3.72;3.42;;;;;;;;;;1868522;76;26198;-30
2021/12/29 08:21:28;;;;;;;3.37;3.17;;;;;;;;;;1875148;76;26359;-30
2021/12/29 08:23:56;;;;;;;3.50;3.30;;;;;;;;;;1859936;76;26744;-30
2021/12/29 08:26:23;;;;;;;3.62;3.42;;;;;;;;;;1875403;76;26311;-29
2021/12/29 08:28:51;;;;;;;3.72;3.42;;;;;;;;;;1860830;76;26268;-30
2021/12/29 08:31:18;;;;;;;3.60;3.30;;;;;;;;;;1874190;76;26760;-29
2021/12/29 08:33:46;;;;;;;3.45;3.25;;;;;;;;;;1880614;75;26228;-30
2021/12/29 08:36:13;;;;;;;3.62;3.33;;;;;;;;;;1888922;76;26536;-30
2021/12/29 08:38:41;;;;;;;3.40;3.20;;;;;;;;;;1888541;76;26239;-29
2021/12/29 08:41:08;;;;;;;3.47;3.20;;;;;;;;;;1880234;76;26257;-30
2021/12/29 08:43:35;;;;;;;3.30;3.10;;;;;;;;;;1871784;76;26259;-30
2021/12/29 08:46:03;;;;;;;3.40;3.20;;;;;;;;;;1876509;76;26261;-30
2021/12/29 08:48:30;;;;;;;3.83;3.20;;;;;;;;;;1884508;76;26373;-30
2021/12/29 08:50:59;;;;;;;3.87;3.58;;;;;;;;;;1883585;76;26722;-30
2021/12/29 08:53:27;;;;;;;3.50;3.30;;;;;;;;;;1877373;76;26276;-30
2021/12/29 08:55:57;;;;;;;3.95;3.55;;;;;;;;;;1860746;76;26307;-29
2021/12/29 08:58:25;;;;;;;3.60;3.30;;;;;;;;;;1890222;76;26802;-30
2021/12/29 09:00:53;;;;;;;3.05;2.85;;;;;;;;;;1890254;76;26872;-29
2021/12/29 09:03:21;;;;;;;3.25;3.05;;;;;;;;;;1888361;76;26270;-30
2021/12/29 09:05:49;;;;;;;3.62;3.33;;;;;;;;;;1886259;76;26274;-30
2021/12/29 09:08:16;;;;;;;3.35;3.12;;;;;;;;;;1883104;76;26246;-30
2021/12/29 09:10:44;;;;;;;4.03;3.47;;;;;;;;;;1890251;76;26252;-30
2021/12/29 09:13:13;;;;;;;3.45;3.15;;;;;;;;;;1879332;74;26816;-30
2021/12/29 09:15:40;;;;;;;3.55;3.25;;;;;;;;;;1881729;76;26187;-30
2021/12/29 09:18:07;;;;;;;4.22;3.40;;;;;;;;;;1888394;76;26247;-29
2021/12/29 09:20:37;;;;;;;3.77;3.40;;;;;;;;;;1888428;76;26266;-29
2021/12/29 09:23:06;;;;;;;3.25;3.05;;;;;;;;;;1885839;76;26278;-29
2021/12/29 09:25:34;;;;;;;3.87;3.55;;;;;;;;;;1890196;76;26303;-30
2021/12/29 09:28:02;;;;;;;4.00;3.42;;;;;;;;;;1886162;76;26315;-29
2021/12/29 09:30:31;;;;;;;3.85;3.30;;;;;;;;;;1880382;75;26190;-29
2021/12/29 09:32:58;;;;;;;4.22;3.58;;;;;;;;;;1883116;75;26363;-30
2021/12/29 09:35:27;;;;;;;6.15;3.20;;;;;;;;;;1874687;75;26301;-30
2021/12/29 09:37:55;;;;;;;6.22;3.35;;;;;;;;;;1874275;75;26207;-29
2021/12/29 09:40:23;;;;;;;3.95;3.58;;;;;;;;;;1879338;76;26698;-30
2021/12/29 09:42:51;;;;;;;5.45;3.70;;;;;;;;;;1879164;76;26265;-29
2021/12/29 09:45:19;;;;;;;4.97;3.87;;;;;;;;;;1880894;75;26718;-30
2021/12/29 09:47:47;;;;;;;4.12;3.72;;;;;;;;;;1855820;76;26195;-29
2021/12/29 09:50:16;;;;;;;4.20;3.80;;;;;;;;;;1880906;76;26397;-29
2021/12/29 09:52:43;;;;;;;7.42;4.12;;;;;;;;;;1881099;76;26207;-29
2021/12/29 09:55:12;;;;;;;5.40;4.10;;;;;;;;;;1880934;76;26702;-29
2021/12/29 09:57:44;;;;;;;5.45;4.10;;;;;;;;;;1879519;76;26268;-29
2021/12/29 10:00:12;;;;;;;4.53;4.10;;;;;;;;;;1866831;76;26825;-29
2021/12/29 10:02:39;;;;;;;8.83;3.90;;;;;;;;;;1875953;76;26293;-29
2021/12/29 10:05:07;;;;;;;6.67;4.08;;;;;;;;;;1857032;76;26286;-29
2021/12/29 10:07:35;;;;;;;4.62;4.00;;;;;;;;;;1862194;76;26687;-29
2021/12/29 10:10:04;;;;;;;5.30;3.92;;;;;;;;;;1881117;76;26305;-29
2021/12/29 10:12:32;;;;;;;6.85;4.17;;;;;;;;;;1876756;76;26273;-29
2021/12/29 10:15:02;;;;;;;5.00;3.72;;;;;;;;;;1878349;76;26273;-29
2021/12/29 10:17:29;;;;;;;5.62;4.37;;;;;;;;;;1882229;75;26243;-29
2021/12/29 10:20:01;;;;;;;5.85;4.00;;;;;;;;;;1880395;75;26367;-29
2021/12/29 10:22:29;;;;;;;5.10;4.60;;;;;;;;;;1879439;75;26333;-29
2021/12/29 10:25:04;;;;;;;4.40;4.00;;;;;;;;;;1877408;76;26199;-30
2021/12/29 10:27:31;;;;;;;5.53;4.15;;;;;;;;;;1877564;76;26812;-29
2021/12/29 10:29:59;;;;;;;4.72;4.20;;;;;;;;;;1879132;75;26267;-29
2021/12/29 10:32:26;;;;;;;5.58;4.08;;;;;;;;;;1878839;76;26762;-29
2021/12/29 10:34:54;;;;;;;7.00;4.47;;;;;;;;;;1870405;75;26235;-29
2021/12/29 10:37:23;;;;;;;5.62;4.25;;;;;;;;;;1878371;76;26312;-29
2021/12/29 10:39:55;;;;;;;6.42;4.10;;;;;;;;;;1873595;76;26254;-30
2021/12/29 10:42:23;;;;;;;6.28;4.37;;;;;;;;;;1872338;76;26404;-29
2021/12/29 10:44:57;;;;;;;5.87;4.50;;;;;;;;;;1875906;76;26272;-29
2021/12/29 10:47:28;;;;;;;6.40;4.30;;;;;;;;;;1870249;76;26242;-29
2021/12/29 10:49:57;;;;;;;5.83;4.28;;;;;;;;;;1856853;76;26225;-30
2021/12/29 10:52:32;;;;;;;4.97;4.12;;;;;;;;;;1866767;76;26276;-30
2021/12/29 10:54:59;;;;;;;5.05;4.40;;;;;;;;;;1880535;76;26250;-29
2021/12/29 10:57:28;;;;;;;7.80;4.05;;;;;;;;;;1880494;76;26221;-29
2021/12/29 10:59:58;;;;;;;5.25;4.40;;;;;;;;;;1870447;76;26209;-29
2021/12/29 11:02:29;;;;;;;5.72;4.40;;;;;;;;;;1880483;76;26773;-29
2021/12/29 11:04:57;;;;;;;5.85;4.50;;;;;;;;;;1874170;76;26245;-29
2021/12/29 11:07:26;;;;;;;5.55;4.40;;;;;;;;;;1872321;76;26856;-29
2021/12/29 11:09:54;;;;;;;4.85;4.45;;;;;;;;;;1879833;75;26764;-29
2021/12/29 11:12:23;;;;;;;6.83;4.67;;;;;;;;;;1877718;76;26321;-29
2021/12/29 11:14:53;;;;;;;5.65;4.60;;;;;;;;;;1880141;76;26744;-29
2021/12/29 11:17:26;;;;;;;5.90;4.78;;;;;;;;;;1880749;76;26344;-29
2021/12/29 11:20:00;;;;;;;7.00;5.00;;;;;;;;;;1874241;76;26183;-30
2021/12/29 11:22:29;;;;;;;6.97;4.42;;;;;;;;;;1881275;76;26224;-29
2021/12/29 11:24:57;;;;;;;5.00;4.50;;;;;;;;;;1880921;76;26313;-29
2021/12/29 11:27:25;;;;;;;5.47;4.53;;;;;;;;;;1878270;76;26277;-29
2021/12/29 11:29:57;;;;;;;4.83;4.33;;;;;;;;;;1876882;76;26207;-29
2021/12/29 11:32:26;;;;;;;5.95;4.80;;;;;;;;;;1876952;76;26342;-29
2021/12/29 11:35:08;;;;;;;6.08;4.70;;;;;;;;;;1874417;75;26306;-29
2021/12/29 11:37:37;;;;;;;4.87;4.37;;;;;;;;;;1869698;76;26912;-29
2021/12/29 11:40:06;;;;;;;5.92;4.50;;;;;;;;;;1881019;76;26253;-30
2021/12/29 11:42:33;;;;;;;7.05;5.05;;;;;;;;;;1881122;76;26725;-29
2021/12/29 11:45:00;;;;;;;5.30;4.80;;;;;;;;;;1880967;76;26274;-29
2021/12/29 11:47:28;;;;;;;6.78;4.80;;;;;;;;;;1881111;76;26203;-29
2021/12/29 11:49:55;;;;;;;6.30;4.87;;;;;;;;;;1880884;76;26360;-29
2021/12/29 11:52:41;;;;;;;5.72;4.83;;;;;;;;;;1881126;76;26757;-29
2021/12/29 11:55:09;;;;;;;4.75;4.35;;;;;;;;;;1880281;76;26775;-29
2021/12/29 11:57:37;;;;;;;6.25;4.97;;;;;;;;;;1858198;76;26277;-29
2021/12/29 12:00:12;;;;;;;6.28;5.22;;;;;;;;;;1845396;77;26331;-30
2021/12/29 12:02:40;;;;;;;6.25;4.70;;;;;;;;;;1850539;76;26308;-29
2021/12/29 12:05:09;;;;;;;7.67;5.37;;;;;;;;;;1875206;76;28156;-29
2021/12/29 12:07:37;;;;;;;7.20;5.47;;;;;;;;;;1868341;75;26199;-29
2021/12/29 12:10:11;;;;;;;7.87;4.85;;;;;;;;;;1874460;75;26729;-29
2021/12/29 12:12:37;;;;;;;8.15;5.00;;;;;;;;;;1862980;76;26300;-29
2021/12/29 12:15:10;;;;;;;7.08;5.10;;;;;;;;;;1854291;76;26270;-29
2021/12/29 12:17:35;;;;;;;5.87;4.85;;;;;;;;;;1879008;76;26285;-29
2021/12/29 12:20:04;;;;;;;5.55;4.62;;;;;;;;;;1880862;76;26717;-29
2021/12/29 12:22:32;;;;;;;8.15;4.78;;;;;;;;;;1881110;76;26732;-29
2021/12/29 12:25:01;;;;;;;7.67;5.10;;;;;;;;;;1878239;76;26678;-29
2021/12/29 12:27:30;;;;;;;7.55;4.83;;;;;;;;;;1878153;76;26379;-29
2021/12/29 12:30:11;;;;;;;6.78;4.80;;;;;;;;;;1876442;76;26203;-30
2021/12/29 12:32:40;;;;;;;8.53;4.72;;;;;;;;;;1876609;76;26281;-29
2021/12/29 12:35:08;;;;;;;7.12;4.87;;;;;;;;;;1878937;76;26355;-29
2021/12/29 12:37:37;;;;;;;6.53;4.78;;;;;;;;;;1884939;76;26691;-29
2021/12/29 12:40:09;;;;;;;7.83;5.03;;;;;;;;;;1890285;76;26291;-29
2021/12/29 12:42:37;;;;;;;5.67;4.90;;;;;;;;;;1889489;76;26258;-29
2021/12/29 12:45:06;;;;;;;5.62;4.70;;;;;;;;;;1889337;76;26361;-29
2021/12/29 12:47:33;;;;;;;6.90;4.67;;;;;;;;;;1883603;76;26270;-29
2021/12/29 12:50:01;;;;;;;7.03;4.85;;;;;;;;;;1857959;77;26704;-29
2021/12/29 12:52:30;;;;;;;5.00;4.50;;;;;;;;;;1858124;77;26209;-30
2021/12/29 12:54:59;;;;;;;7.10;4.90;;;;;;;;;;1857962;77;26358;-29
2021/12/29 12:57:34;;;;;;;5.33;4.72;;;;;;;;;;1873110;76;26269;-30
2021/12/29 13:00:18;;;;;;;7.85;4.85;;;;;;;;;;1878755;76;26356;-30
2021/12/29 13:02:53;;;;;;;5.70;4.50;;;;;;;;;;1880324;76;26276;-30
2021/12/29 13:05:24;;;;;;;5.60;4.35;;;;;;;;;;1876781;75;26269;-30
2021/12/29 13:08:05;;;;;;;7.20;4.70;;;;;;;;;;1887538;75;26202;-30
2021/12/29 13:10:34;;;;;;;6.17;4.33;;;;;;;;;;1887982;76;26250;-30
2021/12/29 13:13:09;;;;;;;6.60;4.92;;;;;;;;;;1871084;76;26310;-30
2021/12/29 13:15:34;;;;;;;5.72;4.60;;;;;;;;;;1883382;76;26372;-31
2021/12/29 13:18:01;;;;;;;5.67;4.58;;;;;;;;;;1884564;76;26319;-30
2021/12/29 13:20:28;;;;;;;5.97;4.90;;;;;;;;;;1886867;76;26651;-30
2021/12/29 13:22:56;;;;;;;7.87;5.00;;;;;;;;;;1887722;76;26183;-30
2021/12/29 13:25:28;;;;;;;6.97;4.97;;;;;;;;;;1890359;76;26234;-31
2021/12/29 13:28:05;;;;;;;5.22;4.55;;;;;;;;;;1886287;76;26718;-31
2021/12/29 13:30:29;;;;;;;5.65;4.78;;;;;;;;;;1882334;76;26735;-30
2021/12/29 13:32:59;;;;;;;6.05;4.53;;;;;;;;;;1885548;76;27244;-30
2021/12/29 13:35:28;;;;;;;6.25;4.65;;;;;;;;;;1878171;76;26350;-30
2021/12/29 13:37:56;;;;;;;6.97;4.90;;;;;;;;;;1857334;77;26266;-30
2021/12/29 13:40:28;;;;;;;7.22;4.60;;;;;;;;;;1852544;77;25683;-30
2021/12/29 13:42:55;;;;;;;5.60;4.83;;;;;;;;;;1853613;77;26266;-30
2021/12/29 13:45:24;;;;;;;5.55;4.72;;;;;;;;;;1856928;76;26262;-30
2021/12/29 13:47:51;;;;;;;8.05;4.55;;;;;;;;;;1845564;76;26239;-30
2021/12/29 13:50:19;;;;;;;5.12;4.50;;;;;;;;;;1854293;76;26710;-30
2021/12/29 13:52:56;;;;;;;6.50;4.97;;;;;;;;;;1855130;76;26247;-30
2021/12/29 13:55:28;;;;;;;6.33;4.72;;;;;;;;;;1827439;78;26257;-30
2021/12/29 13:57:57;;;;;;;7.40;4.62;;;;;;;;;;1858722;76;26299;-30
2021/12/29 14:00:25;;;;;;;5.90;4.53;;;;;;;;;;1849816;76;26441;-30
2021/12/29 14:02:52;;;;;;;6.47;4.85;;;;;;;;;;1863058;76;28154;-31
2021/12/29 14:05:20;;;;;;;15.05;4.75;;;;;;;;;;1852536;77;26243;-30
2021/12/29 14:07:47;;;;;;;33.58;5.95;;;;;;;;;;1856496;76;26259;-46
2021/12/29 14:10:15;;;;;;;20.85;5.62;;;;;;;;;;1847465;76;26911;-45
2021/12/29 14:12:42;;;;;;;17.05;5.17;;;;;;;;;;1848864;76;26201;-45
2021/12/29 14:15:14;;;;;;;14.55;5.35;;;;;;;;;;1845640;76;26266;-40
2021/12/29 14:17:42;;;;;;;16.07;5.03;;;;;;;;;;1856028;76;26302;-43
2021/12/29 14:20:11;;;;;;;19.17;5.80;;;;;;;;;;1837320;76;26803;-46
2021/12/29 14:22:38;;;;;;;13.65;5.35;;;;;;;;;;1835322;77;26649;-46
2021/12/29 14:25:07;;;;;;;17.25;5.08;;;;;;;;;;1851403;76;26670;-45
2021/12/29 14:27:37;;;;;;;22.82;5.28;;;;;;;;;;1879573;76;26249;-50
2021/12/29 14:30:14;;;;;;;13.93;5.60;;;;;;;;;;1863483;75;26282;-47
2021/12/29 14:32:52;;;;;;;13.03;5.10;;;;;;;;;;1842616;76;26753;-46
2021/12/29 14:35:20;;;;;;;10.13;5.53;;;;;;;;;;1874552;76;26403;-46
2021/12/29 14:37:48;;;;;;;13.00;5.40;;;;;;;;;;1860325;76;25734;-44
2021/12/29 14:40:22;;;;;;;10.78;4.95;;;;;;;;;;1880916;76;26482;-43
2021/12/29 14:42:50;;;;;;;8.48;5.10;;;;;;;;;;1858813;76;26748;-45
2021/12/29 14:45:18;;;;;;;8.90;5.05;;;;;;;;;;1876207;76;26265;-47
2021/12/29 14:47:49;;;;;;;5.80;4.60;;;;;;;;;;1874457;76;26630;-46
2021/12/29 14:50:18;;;;;;;6.60;4.90;;;;;;;;;;1879185;76;26259;-46
2021/12/29 14:52:46;;;;;;;7.25;5.03;;;;;;;;;;1876993;76;26862;-54
2021/12/29 14:55:23;;;;;;;9.88;5.05;;;;;;;;;;1873823;75;26316;-47